Time;durP1;ratioP1;P1;durP2;ratioP2;P2;SDS_P1;SDS_P2;PMS_P1;PMS_P2;Temp;Humidity;BMP_temperature;BMP_pressure;BME280_temperature;BME280_humidity;BME280_pressure;Samples;Min_cycle;Max_cycle;Signal;HPM_P1;HPM_P2
2022/02/16 00:00:47;;;;;;;3.53;1.10;;;;;;;6.70;100.00;99601.41;5202985;28;20047;-78
2022/02/16 00:03:17;;;;;;;3.30;1.15;;;;;;;6.80;100.00;99599.34;5193108;28;20052;-78
2022/02/16 00:05:47;;;;;;;2.22;0.98;;;;;;;6.78;99.94;99598.56;5202862;28;20040;-78
2022/02/16 00:08:18;;;;;;;3.78;1.20;;;;;;;6.72;100.00;99590.97;5194365;28;20087;-78
2022/02/16 00:10:48;;;;;;;4.00;1.13;;;;;;;6.72;100.00;99593.56;5192437;28;20386;-78
2022/02/16 00:13:18;;;;;;;2.10;1.00;;;;;;;6.74;99.81;99594.38;5192748;28;20033;-78
2022/02/16 00:15:49;;;;;;;3.13;0.90;;;;;;;6.67;100.00;99595.47;5192003;28;20034;-78
2022/02/16 00:18:19;;;;;;;3.40;1.17;;;;;;;6.73;100.00;99587.50;5193770;28;20554;-78
2022/02/16 00:20:50;;;;;;;6.05;0.95;;;;;;;6.69;100.00;99576.34;5191612;28;20040;-78
2022/02/16 00:23:21;;;;;;;2.30;0.90;;;;;;;6.72;100.00;99576.25;5194803;28;20034;-78
2022/02/16 00:25:51;;;;;;;3.85;1.00;;;;;;;6.67;100.00;99577.31;5193807;28;20029;-78
2022/02/16 00:28:22;;;;;;;3.47;1.40;;;;;;;6.75;100.00;99572.69;5193273;28;20750;-78
2022/02/16 00:30:52;;;;;;;2.63;1.00;;;;;;;6.78;100.00;99582.97;5202663;28;20041;-79
2022/02/16 00:33:23;;;;;;;2.97;1.20;;;;;;;6.67;100.00;99567.78;5193177;28;20031;-79
2022/02/16 00:35:53;;;;;;;4.85;1.73;;;;;;;6.71;100.00;99560.72;5190707;28;20424;-79
2022/02/16 00:38:24;;;;;;;4.50;1.13;;;;;;;6.64;100.00;99567.03;5190032;28;20029;-79
2022/02/16 00:40:54;;;;;;;4.43;1.10;;;;;;;6.67;100.00;99566.91;5193515;28;20025;-79
2022/02/16 00:43:24;;;;;;;5.85;1.35;;;;;;;6.85;99.52;99558.47;5191012;28;20026;-79
2022/02/16 00:45:55;;;;;;;5.53;1.30;;;;;;;6.82;99.82;99567.22;5193988;28;20112;-79
2022/02/16 00:48:25;;;;;;;4.75;1.20;;;;;;;6.75;100.00;99554.53;5190662;28;20603;-79
2022/02/16 00:50:55;;;;;;;2.35;1.08;;;;;;;6.74;100.00;99558.03;5193088;28;20030;-79
2022/02/16 00:53:25;;;;;;;2.60;1.00;;;;;;;6.81;100.00;99556.88;5188390;28;20468;-78
2022/02/16 00:55:56;;;;;;;5.30;1.63;;;;;;;6.76;100.00;99551.84;5190064;28;20021;-78
2022/02/16 00:58:26;;;;;;;5.35;1.48;;;;;;;6.84;100.00;99551.56;5192679;28;20074;-79
2022/02/16 01:00:57;;;;;;;2.97;1.25;;;;;;;6.79;100.00;99562.13;5202242;28;20033;-78
2022/02/16 01:03:27;;;;;;;2.53;1.17;;;;;;;6.67;100.00;99551.34;5192035;28;20372;-78
2022/02/16 01:05:57;;;;;;;4.85;1.27;;;;;;;6.79;99.97;99561.28;5202025;28;20033;-79
2022/02/16 01:08:29;;;;;;;3.80;1.50;;;;;;;6.75;100.00;99570.09;5183397;28;20080;-78
2022/02/16 01:10:59;;;;;;;4.57;1.50;;;;;;;6.76;100.00;99557.06;5193649;28;20033;-78
2022/02/16 01:13:29;;;;;;;5.65;1.58;;;;;;;6.78;99.92;99552.66;5191538;28;20030;-79
2022/02/16 01:16:00;;;;;;;3.50;1.30;;;;;;;6.74;99.76;99548.47;5195747;28;20021;-79
2022/02/16 01:18:30;;;;;;;4.47;1.58;;;;;;;6.78;100.00;99551.81;5190241;28;20037;-79
2022/02/16 01:21:00;;;;;;;5.07;1.52;;;;;;;6.93;99.60;99540.88;5192397;28;20771;-78
2022/02/16 01:23:31;;;;;;;2.60;1.30;;;;;;;6.79;100.00;99536.16;5190069;28;20112;-78
2022/02/16 01:26:01;;;;;;;4.28;1.20;;;;;;;6.85;100.00;99528.16;5193375;28;20033;-79
2022/02/16 01:28:31;;;;;;;2.65;1.50;;;;;;;6.78;100.00;99531.03;5177171;28;20057;-78
2022/02/16 01:31:01;;;;;;;4.53;1.40;;;;;;;6.78;100.00;99534.47;5191933;28;20055;-78
2022/02/16 01:33:32;;;;;;;6.03;1.63;;;;;;;6.78;100.00;99525.84;5189521;28;20482;-78
2022/02/16 01:36:02;;;;;;;4.80;1.38;;;;;;;6.77;100.00;99530.19;5201552;28;20024;-78
2022/02/16 01:38:35;;;;;;;3.88;1.55;;;;;;;6.75;100.00;99520.78;5191808;28;20084;-78
2022/02/16 01:41:05;;;;;;;2.45;1.40;;;;;;;6.78;100.00;99512.88;5192243;28;20022;-79
2022/02/16 01:43:35;;;;;;;4.30;1.52;;;;;;;6.77;100.00;99516.38;5190131;28;20034;-78
2022/02/16 01:46:06;;;;;;;2.33;1.40;;;;;;;6.75;100.00;99505.19;5192580;28;20028;-79
2022/02/16 01:48:36;;;;;;;4.25;1.48;;;;;;;6.82;100.00;99510.09;5190137;28;20037;-78
2022/02/16 01:51:06;;;;;;;4.43;1.50;;;;;;;6.81;100.00;99499.78;5192084;28;20682;-78
2022/02/16 01:53:38;;;;;;;2.42;1.33;;;;;;;6.76;100.00;99493.91;5190345;28;20480;-79
2022/02/16 01:56:08;;;;;;;3.95;1.80;;;;;;;6.72;100.00;99494.91;5192075;28;20075;-79
2022/02/16 01:58:41;;;;;;;2.90;1.38;;;;;;;6.69;100.00;99489.84;5193638;28;20542;-78
2022/02/16 02:01:11;;;;;;;4.18;1.77;;;;;;;6.72;100.00;99481.94;5199440;28;20029;-79
2022/02/16 02:03:42;;;;;;;4.22;1.65;;;;;;;6.68;100.00;99493.34;5194185;28;20059;-79
2022/02/16 02:06:12;;;;;;;2.33;1.30;;;;;;;6.68;100.00;99473.44;5200594;28;20040;-79
2022/02/16 02:08:42;;;;;;;3.10;1.35;;;;;;;6.76;100.00;99478.34;5191080;28;20677;-78
2022/02/16 02:11:13;;;;;;;3.97;1.70;;;;;;;6.79;100.00;99468.66;5191038;28;20092;-78
2022/02/16 02:13:56;;;;;;;2.65;1.45;;;;;;;6.81;100.00;99461.69;5191035;28;20038;-79
2022/02/16 02:16:27;;;;;;;2.25;1.23;;;;;;;6.79;100.00;99462.63;5192767;28;20024;-79
2022/02/16 02:18:58;;;;;;;4.47;1.50;;;;;;;6.80;100.00;99456.53;5188955;28;20582;-78
2022/02/16 02:21:29;;;;;;;4.75;1.50;;;;;;;6.83;100.00;99448.63;5192744;28;20029;-80
2022/02/16 02:23:59;;;;;;;2.10;1.30;;;;;;;6.84;100.00;99452.91;5197387;28;20084;-78
2022/02/16 02:26:30;;;;;;;2.33;1.40;;;;;;;6.86;100.00;99448.50;5192928;28;20065;-78
2022/02/16 02:29:01;;;;;;;2.63;1.30;;;;;;;6.89;100.00;99443.19;5199318;28;20383;-78
2022/02/16 02:31:34;;;;;;;3.97;1.38;;;;;;;6.80;100.00;99446.16;5200448;28;20041;-78
2022/02/16 02:34:05;;;;;;;6.25;1.30;;;;;;;6.83;100.00;99435.66;5199754;28;20458;-78
2022/02/16 02:36:35;;;;;;;5.20;1.45;;;;;;;6.85;100.00;99426.03;5203127;28;20033;-78
2022/02/16 02:39:05;;;;;;;4.80;1.40;;;;;;;6.81;100.00;99419.28;5193805;28;20052;-78
2022/02/16 02:41:36;;;;;;;3.95;1.50;;;;;;;6.84;100.00;99412.22;5195145;28;20029;-78
2022/02/16 02:44:06;;;;;;;3.85;1.20;;;;;;;6.82;100.00;99402.78;5193116;28;20021;-78
2022/02/16 02:46:36;;;;;;;3.95;1.42;;;;;;;6.91;100.00;99398.09;5195344;28;20040;-78
2022/02/16 02:49:09;;;;;;;4.70;1.60;;;;;;;6.83;100.00;99389.78;5193609;28;20053;-79
2022/02/16 02:51:39;;;;;;;4.70;1.10;;;;;;;6.90;100.00;99399.00;5194851;28;20087;-79
2022/02/16 02:54:09;;;;;;;2.25;1.25;;;;;;;7.01;100.00;99385.56;5193559;28;20423;-79
2022/02/16 02:56:39;;;;;;;2.38;1.10;;;;;;;6.99;100.00;99379.59;5195153;28;20525;-79
2022/02/16 02:59:11;;;;;;;3.90;1.27;;;;;;;6.98;100.00;99375.31;5199899;28;20420;-78
2022/02/16 03:01:41;;;;;;;4.38;1.33;;;;;;;6.93;100.00;99377.25;5199655;28;20042;-78
2022/02/16 03:04:11;;;;;;;2.45;1.15;;;;;;;6.90;100.00;99372.19;5198548;28;20029;-79
2022/02/16 03:06:42;;;;;;;2.30;1.17;;;;;;;6.94;100.00;99379.78;5201351;28;20033;-78
2022/02/16 03:09:12;;;;;;;3.00;1.02;;;;;;;6.97;100.00;99376.22;5194119;28;20030;-78
2022/02/16 03:11:42;;;;;;;4.75;1.30;;;;;;;6.93;100.00;99369.47;5192526;28;20036;-79
2022/02/16 03:14:12;;;;;;;3.15;1.17;;;;;;;6.94;100.00;99368.56;5193829;28;20018;-79
2022/02/16 03:16:43;;;;;;;1.88;1.10;;;;;;;6.99;100.00;99367.47;5193524;28;20033;-78
2022/02/16 03:19:13;;;;;;;5.45;1.35;;;;;;;7.00;100.00;99361.38;5193474;28;20685;-79
2022/02/16 03:21:44;;;;;;;2.33;1.15;;;;;;;7.06;100.00;99355.91;5193630;28;20030;-79
2022/02/16 03:24:14;;;;;;;2.47;1.40;;;;;;;7.04;100.00;99352.53;5195574;28;20029;-79
2022/02/16 03:26:45;;;;;;;4.95;1.02;;;;;;;7.04;100.00;99349.09;5193696;28;20056;-78
2022/02/16 03:29:15;;;;;;;2.25;1.20;;;;;;;7.07;100.00;99357.59;5198113;28;20035;-79
2022/02/16 03:31:48;;;;;;;3.55;1.40;;;;;;;7.09;100.00;99349.75;5197998;28;20037;-78
2022/02/16 03:34:19;;;;;;;2.50;1.00;;;;;;;7.10;100.00;99338.47;5198504;28;20029;-79
2022/02/16 03:36:49;;;;;;;2.40;1.30;;;;;;;7.06;100.00;99332.53;5200413;28;20026;-78
2022/02/16 03:39:19;;;;;;;2.30;1.00;;;;;;;7.12;100.00;99337.47;5194355;28;20044;-79
2022/02/16 03:41:50;;;;;;;4.13;1.17;;;;;;;7.09;100.00;99322.03;5191912;28;20026;-79
2022/02/16 03:44:20;;;;;;;2.58;1.10;;;;;;;7.06;100.00;99323.91;5194161;28;20057;-79
2022/02/16 03:46:51;;;;;;;1.63;0.90;;;;;;;7.13;100.00;99325.34;5191478;28;20042;-78
2022/02/16 03:49:25;;;;;;;2.42;1.10;;;;;;;7.09;100.00;99308.22;5193627;28;20057;-78
2022/02/16 03:51:55;;;;;;;4.75;1.23;;;;;;;7.04;100.00;99315.31;5190003;28;20056;-78
2022/02/16 03:54:26;;;;;;;3.65;1.02;;;;;;;7.12;100.00;99310.66;5194134;28;20045;-78
2022/02/16 03:56:56;;;;;;;1.92;1.30;;;;;;;7.15;100.00;99310.53;5190520;28;20029;-78
2022/02/16 03:59:26;;;;;;;2.05;0.90;;;;;;;7.08;100.00;99304.75;5200117;28;20116;-78
2022/02/16 04:02:01;;;;;;;1.52;0.90;;;;;;;7.12;100.00;99301.09;5197904;28;20032;-78
2022/02/16 04:04:31;;;;;;;2.17;0.82;;;;;;;7.07;100.00;99297.03;5197446;28;20030;-78
2022/02/16 04:07:01;;;;;;;2.25;1.00;;;;;;;7.11;100.00;99293.41;5198094;28;20041;-78
2022/02/16 04:09:32;;;;;;;2.80;1.00;;;;;;;7.13;100.00;99286.38;5193606;28;20222;-78
2022/02/16 04:12:02;;;;;;;2.20;1.00;;;;;;;7.11;100.00;99277.81;5190338;28;20458;-78
2022/02/16 04:14:33;;;;;;;1.88;0.90;;;;;;;7.09;100.00;99277.03;5193532;28;20100;-79
2022/02/16 04:17:03;;;;;;;2.97;1.20;;;;;;;7.18;100.00;99287.03;5190458;28;20022;-78
2022/02/16 04:19:33;;;;;;;3.17;0.98;;;;;;;7.11;100.00;99283.00;5192878;28;20033;-78
2022/02/16 04:22:04;;;;;;;2.15;0.80;;;;;;;7.15;100.00;99276.78;5190439;28;20028;-78
2022/02/16 04:24:34;;;;;;;2.38;1.10;;;;;;;7.21;100.00;99269.56;5194083;28;20088;-78
2022/02/16 04:27:04;;;;;;;2.63;1.00;;;;;;;7.16;100.00;99273.25;5192649;28;20079;-78
2022/02/16 04:29:35;;;;;;;4.20;0.98;;;;;;;7.20;100.00;99280.00;5197288;28;20040;-78
2022/02/16 04:32:05;;;;;;;2.42;1.02;;;;;;;7.16;100.00;99273.25;5195763;28;20041;-78
2022/02/16 04:34:35;;;;;;;1.85;0.90;;;;;;;7.20;100.00;99277.41;5197553;28;20387;-78
2022/02/16 04:37:06;;;;;;;2.15;0.80;;;;;;;7.22;100.00;99280.78;5197518;28;20044;-78
2022/02/16 04:39:36;;;;;;;2.38;1.08;;;;;;;7.22;100.00;99265.19;5191117;28;20541;-78
2022/02/16 04:42:07;;;;;;;2.78;0.80;;;;;;;7.17;100.00;99268.00;5189095;28;20504;-78
2022/02/16 04:44:37;;;;;;;3.33;1.15;;;;;;;7.18;100.00;99276.63;5191671;28;20107;-78
2022/02/16 04:47:08;;;;;;;2.95;1.05;;;;;;;7.20;100.00;99254.88;5189884;28;20510;-78
2022/02/16 04:49:38;;;;;;;2.03;0.93;;;;;;;7.11;100.00;99263.06;5191572;28;20040;-78
2022/02/16 04:52:09;;;;;;;1.67;0.90;;;;;;;7.13;100.00;99260.41;5189333;28;20227;-78
2022/02/16 04:54:40;;;;;;;1.63;0.93;;;;;;;7.11;100.00;99254.44;5191223;28;20083;-78
2022/02/16 04:57:10;;;;;;;2.35;1.00;;;;;;;7.13;100.00;99257.81;5187673;28;20097;-78
2022/02/16 04:59:40;;;;;;;3.60;1.10;;;;;;;7.07;100.00;99251.13;5198456;28;20113;-78
2022/02/16 05:02:10;;;;;;;1.42;0.90;;;;;;;7.05;100.00;99249.47;5195249;28;20243;-78
2022/02/16 05:04:41;;;;;;;2.83;1.10;;;;;;;7.04;100.00;99248.66;5190602;28;20045;-78
2022/02/16 05:07:11;;;;;;;4.50;1.05;;;;;;;6.97;100.00;99243.78;5190531;28;20304;-78
2022/02/16 05:09:41;;;;;;;1.90;0.90;;;;;;;7.00;100.00;99239.31;5191821;28;20395;-78
2022/02/16 05:12:12;;;;;;;1.20;0.80;;;;;;;7.04;100.00;99240.00;5192072;28;20121;-78
2022/02/16 05:14:42;;;;;;;3.30;1.00;;;;;;;6.95;100.00;99235.22;5191012;28;20037;-78
2022/02/16 05:17:12;;;;;;;3.85;1.00;;;;;;;7.08;100.00;99233.78;5190318;28;20029;-78
2022/02/16 05:19:43;;;;;;;1.35;0.80;;;;;;;7.04;100.00;99224.44;5190705;28;20112;-78
2022/02/16 05:22:14;;;;;;;2.47;1.13;;;;;;;7.08;100.00;99221.63;5189419;28;20053;-78
2022/02/16 05:24:44;;;;;;;1.75;1.00;;;;;;;7.04;100.00;99216.63;5191757;28;20113;-77
2022/02/16 05:27:15;;;;;;;2.40;0.90;;;;;;;7.12;100.00;99217.16;5189973;28;20032;-78
2022/02/16 05:29:45;;;;;;;2.20;1.08;;;;;;;6.99;100.00;99203.88;5197729;28;20033;-78
2022/02/16 05:32:15;;;;;;;3.47;1.15;;;;;;;7.01;100.00;99199.44;5193681;28;20535;-78
2022/02/16 05:34:46;;;;;;;2.00;1.10;;;;;;;7.05;100.00;99194.94;5198381;28;20029;-78
2022/02/16 05:37:16;;;;;;;2.80;1.10;;;;;;;7.01;100.00;99183.88;5195655;28;20105;-78
2022/02/16 05:39:46;;;;;;;2.00;1.15;;;;;;;7.01;100.00;99183.88;5189783;28;20036;-78
2022/02/16 05:42:17;;;;;;;1.73;1.10;;;;;;;7.01;100.00;99178.69;5189475;28;20033;-78
2022/02/16 05:44:48;;;;;;;2.55;1.00;;;;;;;7.10;100.00;99177.44;5188610;28;20033;-78
2022/02/16 05:47:18;;;;;;;4.00;1.08;;;;;;;7.08;100.00;99174.06;5191124;28;20486;-78
2022/02/16 05:49:48;;;;;;;1.50;0.90;;;;;;;7.04;100.00;99157.75;5186353;28;20029;-78
2022/02/16 05:52:19;;;;;;;2.42;0.90;;;;;;;7.06;100.00;99152.47;5190401;28;20270;-78
2022/02/16 05:54:49;;;;;;;1.98;0.85;;;;;;;7.02;100.00;99153.53;5191777;28;20018;-78
2022/02/16 05:57:19;;;;;;;2.88;0.88;;;;;;;7.04;100.00;99141.31;5193091;28;20037;-79
2022/02/16 05:59:50;;;;;;;2.55;0.90;;;;;;;7.05;100.00;99140.41;5192612;28;20022;-79
2022/02/16 06:02:20;;;;;;;1.75;0.90;;;;;;;7.03;100.00;99134.44;5192010;28;20036;-79
2022/02/16 06:04:51;;;;;;;3.58;1.00;;;;;;;6.99;100.00;99125.09;5202706;28;20021;-78
2022/02/16 06:07:21;;;;;;;2.50;0.90;;;;;;;7.00;100.00;99124.19;5192029;28;20048;-79
2022/02/16 06:09:51;;;;;;;2.80;1.00;;;;;;;7.05;100.00;99117.88;5185311;28;20538;-79
2022/02/16 06:12:21;;;;;;;1.30;0.93;;;;;;;7.12;100.00;99102.88;5183957;28;20483;-79
2022/02/16 06:14:52;;;;;;;2.08;0.75;;;;;;;7.09;100.00;99101.25;5199498;28;20101;-78
2022/02/16 06:17:22;;;;;;;2.28;0.98;;;;;;;7.14;100.00;99101.03;5195488;28;20026;-79
2022/02/16 06:19:52;;;;;;;3.28;0.98;;;;;;;7.12;100.00;99110.66;5196506;28;20027;-80
2022/02/16 06:22:22;;;;;;;1.50;0.90;;;;;;;7.22;100.00;99107.59;5192681;28;20048;-79
2022/02/16 06:24:53;;;;;;;2.08;0.80;;;;;;;7.30;100.00;99108.91;5195858;28;20025;-80
2022/02/16 06:27:23;;;;;;;1.35;0.80;;;;;;;7.34;100.00;99097.47;5193448;28;20030;-79
2022/02/16 06:29:53;;;;;;;1.88;0.88;;;;;;;7.34;100.00;99089.66;5202230;28;20513;-80
2022/02/16 06:32:24;;;;;;;2.80;0.85;;;;;;;7.35;100.00;99080.97;5197632;28;20037;-80
2022/02/16 06:34:54;;;;;;;1.77;0.80;;;;;;;7.35;100.00;99086.16;5201907;28;20407;-78
2022/02/16 06:37:24;;;;;;;2.35;0.85;;;;;;;7.29;100.00;99095.97;5197368;28;20256;-78
2022/02/16 06:39:54;;;;;;;2.50;0.88;;;;;;;7.36;100.00;99105.19;5196932;28;20031;-79
2022/02/16 06:42:25;;;;;;;1.98;0.90;;;;;;;7.35;100.00;99086.16;5192961;28;20026;-79
2022/02/16 06:44:55;;;;;;;2.08;0.85;;;;;;;7.40;100.00;99089.41;5197116;28;20036;-80
2022/02/16 06:47:25;;;;;;;2.88;0.90;;;;;;;7.43;100.00;99067.59;5192906;28;20539;-80
2022/02/16 06:49:56;;;;;;;2.58;1.30;;;;;;;7.44;100.00;99064.94;5194996;28;20030;-80
2022/02/16 06:52:26;;;;;;;3.33;1.10;;;;;;;7.49;100.00;99056.94;5194918;28;20045;-79
2022/02/16 06:54:56;;;;;;;2.45;1.00;;;;;;;7.47;100.00;99044.00;5193639;28;20029;-80
2022/02/16 06:57:26;;;;;;;1.98;0.80;;;;;;;7.46;100.00;99050.13;5197759;28;20029;-79
2022/02/16 06:59:57;;;;;;;2.17;0.93;;;;;;;7.56;100.00;99050.53;5200463;28;20032;-79
2022/02/16 07:02:27;;;;;;;1.50;0.70;;;;;;;7.60;100.00;99052.06;5188921;28;20037;-78
2022/02/16 07:04:58;;;;;;;1.45;0.50;;;;;;;7.63;100.00;99039.75;5204187;28;20029;-78
2022/02/16 07:07:30;;;;;;;2.95;1.00;;;;;;;7.70;100.00;99043.75;5199331;28;20124;-80
2022/02/16 07:10:00;;;;;;;1.20;0.70;;;;;;;7.67;100.00;99036.09;5193777;28;20129;-79
2022/02/16 07:12:30;;;;;;;1.45;0.80;;;;;;;7.69;100.00;99021.25;5196576;28;20116;-80
2022/02/16 07:15:00;;;;;;;3.05;1.40;;;;;;;7.65;100.00;99017.13;5193031;28;20072;-80
2022/02/16 07:17:31;;;;;;;2.47;1.13;;;;;;;7.66;100.00;99016.22;5196512;28;20108;-80
2022/02/16 07:20:01;;;;;;;1.33;0.63;;;;;;;7.76;100.00;99001.00;5193363;28;20076;-79
2022/02/16 07:22:31;;;;;;;3.03;0.70;;;;;;;7.75;100.00;98999.31;5195880;28;20033;-80
2022/02/16 07:25:02;;;;;;;1.88;0.65;;;;;;;7.78;100.00;99004.38;5193364;28;20415;-79
2022/02/16 07:27:32;;;;;;;1.85;0.65;;;;;;;7.82;100.00;98998.94;5193864;28;20100;-80
2022/02/16 07:30:05;;;;;;;0.80;0.60;;;;;;;7.81;100.00;99002.47;5203275;28;20021;-80
2022/02/16 07:32:40;;;;;;;1.15;0.50;;;;;;;7.84;100.00;98988.47;5196722;28;20044;-79
2022/02/16 07:35:13;;;;;;;1.42;0.60;;;;;;;7.80;100.00;98979.13;5203645;28;20025;-80
2022/02/16 07:37:44;;;;;;;4.57;0.52;;;;;;;7.92;100.00;98968.97;5196929;28;20037;-79
2022/02/16 07:40:14;;;;;;;2.58;0.55;;;;;;;7.99;100.00;98975.53;5194245;28;20030;-79
2022/02/16 07:42:44;;;;;;;0.80;0.50;;;;;;;7.96;100.00;98965.28;5192559;28;20029;-80
2022/02/16 07:45:15;;;;;;;0.90;0.50;;;;;;;8.02;100.00;98964.16;5194561;28;20033;-80
2022/02/16 07:47:45;;;;;;;0.77;0.52;;;;;;;8.05;100.00;98970.00;5191708;28;20098;-79
2022/02/16 07:50:15;;;;;;;0.82;0.40;;;;;;;8.01;100.00;98957.25;5194790;28;20036;-80
2022/02/16 07:52:46;;;;;;;0.80;0.43;;;;;;;8.14;100.00;98955.69;5192641;28;20029;-80
2022/02/16 07:55:17;;;;;;;1.08;0.50;;;;;;;8.14;100.00;98938.34;5194666;28;20105;-80
2022/02/16 07:57:47;;;;;;;1.65;0.40;;;;;;;8.19;100.00;98922.53;5193969;28;20034;-79
2022/02/16 08:00:18;;;;;;;0.70;0.45;;;;;;;8.33;100.00;98936.47;5204279;28;20109;-80
2022/02/16 08:02:48;;;;;;;1.80;0.40;;;;;;;8.37;100.00;98924.97;5195686;28;20100;-80
2022/02/16 08:05:19;;;;;;;0.43;0.40;;;;;;;8.50;100.00;98907.78;5202938;28;20033;-80
2022/02/16 08:07:49;;;;;;;1.08;0.32;;;;;;;8.40;100.00;98903.16;5197217;28;20468;-80
2022/02/16 08:10:20;;;;;;;0.40;0.30;;;;;;;8.50;100.00;98897.38;5195601;28;20029;-80
2022/02/16 08:12:58;;;;;;;0.60;0.47;;;;;;;8.47;100.00;98889.75;5192369;28;20315;-79
2022/02/16 08:15:31;;;;;;;0.70;0.30;;;;;;;8.48;100.00;98880.16;5188674;28;20093;-80
2022/02/16 08:18:02;;;;;;;0.75;0.40;;;;;;;8.40;100.00;98867.56;5193970;28;20435;-81
2022/02/16 08:20:32;;;;;;;1.15;0.50;;;;;;;8.27;100.00;98870.91;5191322;28;20033;-80
2022/02/16 08:23:04;;;;;;;0.95;0.60;;;;;;;8.28;100.00;98862.19;5188598;28;20108;-79
2022/02/16 08:25:34;;;;;;;0.60;0.47;;;;;;;8.19;100.00;98844.47;5190890;28;20045;-80
2022/02/16 08:28:05;;;;;;;0.85;0.52;;;;;;;8.19;100.00;98841.88;5190589;28;20037;-80
2022/02/16 08:30:36;;;;;;;0.80;0.32;;;;;;;8.13;100.00;98830.00;5194829;28;20053;-80
2022/02/16 08:33:10;;;;;;;0.85;0.38;;;;;;;8.22;100.00;98832.13;5190107;28;20029;-80
2022/02/16 08:35:41;;;;;;;0.57;0.30;;;;;;;8.22;100.00;98823.50;5194076;28;20093;-80
2022/02/16 08:38:11;;;;;;;1.52;0.43;;;;;;;8.19;100.00;98828.88;5191613;28;20044;-80
2022/02/16 08:40:41;;;;;;;0.73;0.40;;;;;;;8.26;100.00;98817.19;5188301;28;20060;-78
2022/02/16 08:43:12;;;;;;;0.95;0.40;;;;;;;8.16;100.00;98806.41;5189752;28;20033;-79
2022/02/16 08:45:42;;;;;;;0.40;0.30;;;;;;;8.11;100.00;98811.03;5189363;28;20253;-79
2022/02/16 08:48:12;;;;;;;3.67;0.40;;;;;;;8.15;100.00;98804.72;5190140;28;20089;-81
2022/02/16 08:50:43;;;;;;;0.52;0.40;;;;;;;8.15;100.00;98791.72;5193673;28;20090;-81
2022/02/16 08:53:13;;;;;;;1.05;0.30;;;;;;;8.11;100.00;98782.41;5191261;28;20030;-81
2022/02/16 08:55:44;;;;;;;0.75;0.40;;;;;;;8.10;100.00;98772.06;5192657;28;20029;-79
2022/02/16 08:58:15;;;;;;;1.25;0.40;;;;;;;8.15;100.00;98762.25;5191425;28;20033;-80
2022/02/16 09:00:45;;;;;;;0.73;0.40;;;;;;;8.26;100.00;98760.78;5192124;28;20080;-81
2022/02/16 09:03:16;;;;;;;1.20;0.40;;;;;;;8.34;100.00;98753.41;5188998;28;20025;-80
2022/02/16 09:05:47;;;;;;;1.00;0.50;;;;;;;8.37;100.00;98761.03;5192926;28;20045;-81
2022/02/16 09:08:17;;;;;;;0.70;0.40;;;;;;;8.46;100.00;98744.91;5191248;28;20048;-80
2022/02/16 09:10:48;;;;;;;0.57;0.40;;;;;;;8.50;100.00;98751.59;5187882;28;20392;-80
2022/02/16 09:13:18;;;;;;;0.95;0.40;;;;;;;8.54;100.00;98740.09;5189985;28;20040;-80
2022/02/16 09:15:49;;;;;;;0.93;0.50;;;;;;;8.56;100.00;98738.25;5188688;28;20112;-79
2022/02/16 09:18:19;;;;;;;0.73;0.40;;;;;;;8.62;100.00;98731.84;5190216;28;20033;-80
2022/02/16 09:20:49;;;;;;;0.82;0.40;;;;;;;8.69;100.00;98725.38;5188918;28;20037;-80
2022/02/16 09:23:19;;;;;;;0.60;0.40;;;;;;;8.70;100.00;98720.06;5186716;28;20022;-80
2022/02/16 09:25:50;;;;;;;0.73;0.30;;;;;;;8.73;100.00;98721.66;5189164;28;20029;-79
2022/02/16 09:28:20;;;;;;;0.85;0.55;;;;;;;8.85;100.00;98711.38;5193243;28;20109;-79
2022/02/16 09:30:50;;;;;;;1.10;0.35;;;;;;;8.94;100.00;98702.19;5201699;28;20502;-80
2022/02/16 09:33:21;;;;;;;0.25;0.25;;;;;;;8.94;100.00;98703.03;5193167;28;20028;-80
2022/02/16 09:35:51;;;;;;;0.40;0.30;;;;;;;9.05;100.00;98703.22;5202178;28;20029;-80
2022/02/16 09:38:22;;;;;;;3.17;0.40;;;;;;;9.06;100.00;98685.84;5194364;28;20055;-80
2022/02/16 09:40:53;;;;;;;2.00;0.43;;;;;;;9.10;100.00;98682.94;5190028;28;20022;-80
2022/02/16 09:43:24;;;;;;;0.43;0.32;;;;;;;9.25;100.00;98695.91;5194215;28;20499;-80
2022/02/16 09:45:57;;;;;;;1.48;0.40;;;;;;;9.22;100.00;98679.59;5185162;28;20103;-80
2022/02/16 09:48:28;;;;;;;1.05;0.30;;;;;;;9.21;100.00;98670.09;5186261;28;20026;-82
2022/02/16 09:50:58;;;;;;;0.75;0.35;;;;;;;8.96;100.00;98664.72;5194778;28;20025;-80
2022/02/16 09:53:30;;;;;;;0.70;0.30;;;;;;;8.79;100.00;98667.47;5189922;28;20156;-80
2022/02/16 09:56:01;;;;;;;1.90;0.55;;;;;;;8.82;100.00;98676.84;5193985;28;20014;-81
2022/02/16 09:58:33;;;;;;;1.60;0.45;;;;;;;8.83;100.00;98666.34;5193506;28;20210;-80
2022/02/16 10:01:05;;;;;;;0.50;0.20;;;;;;;8.80;100.00;98658.72;5200839;28;20029;-80
2022/02/16 10:03:35;;;;;;;1.17;0.40;;;;;;;8.78;100.00;98650.19;5192509;28;20080;-80
2022/02/16 10:06:06;;;;;;;3.53;0.50;;;;;;;8.92;100.00;98644.13;5189770;28;20200;-81
2022/02/16 10:08:47;;;;;;;0.50;0.30;;;;;;;8.96;100.00;98638.66;5195377;28;20427;-80
2022/02/16 10:11:18;;;;;;;1.35;0.38;;;;;;;8.92;100.00;98628.50;5180355;28;20026;-80
2022/02/16 10:13:48;;;;;;;0.63;0.40;;;;;;;8.93;100.00;98638.81;5198887;28;20025;-82
2022/02/16 10:16:31;;;;;;;0.75;0.38;;;;;;;9.00;100.00;98627.13;5192672;28;20013;-80
2022/02/16 10:19:01;;;;;;;0.32;0.30;;;;;;;8.98;100.00;98620.31;5180295;28;20105;-80
2022/02/16 10:21:32;;;;;;;0.60;0.20;;;;;;;9.21;100.00;98616.25;5184444;28;20584;-80
2022/02/16 10:24:02;;;;;;;0.32;0.22;;;;;;;9.17;100.00;98630.34;5189269;28;20101;-79
2022/02/16 10:26:53;;;;;;;0.25;0.20;;;;;;;9.21;100.00;98618.00;5203814;28;20036;-82
2022/02/16 10:29:29;;;;;;;0.50;0.20;;;;;;;9.19;100.00;98612.03;5198527;28;20475;-82
2022/02/16 10:32:00;;;;;;;2.55;0.22;;;;;;;9.24;100.00;98623.00;5192232;28;20033;-83
2022/02/16 10:34:48;;;;;;;2.97;1.20;;;;;;;9.32;100.00;98636.44;5190277;28;20026;-80
2022/02/16 10:37:32;;;;;;;2.95;1.20;;;;;;;9.49;100.00;98618.78;5193365;28;20146;-80
2022/02/16 10:40:10;;;;;;;1.10;0.60;;;;;;;9.46;100.00;98595.53;5185821;28;20026;-80
2022/02/16 10:42:55;;;;;;;1.45;0.57;;;;;;;9.38;100.00;98615.19;5194205;28;20057;-79
2022/02/16 10:45:28;;;;;;;0.33;0.30;;;;;;;9.46;100.00;98577.28;5195347;28;20037;-79
2022/02/16 10:48:04;;;;;;;1.00;0.50;;;;;;;9.54;100.00;98600.25;5187917;28;20287;-80
2022/02/16 10:50:37;;;;;;;;;;;;;;;9.50;100.00;98583.16;5195104;28;20107;-80
2022/02/16 10:53:08;;;;;;;2.15;0.65;;;;;;;9.53;100.00;98591.63;5191919;28;20391;-80
2022/02/16 10:55:49;;;;;;;1.58;0.30;;;;;;;9.61;100.00;98601.53;5194162;28;20044;-80
2022/02/16 10:58:23;;;;;;;1.30;0.40;;;;;;;9.65;100.00;98587.41;5197845;28;20048;-81
2022/02/16 11:00:56;;;;;;;0.98;0.30;;;;;;;9.66;100.00;98582.06;5201344;28;20029;-81
2022/02/16 11:03:30;;;;;;;0.43;0.30;;;;;;;9.61;100.00;98565.03;5187526;28;20040;-83
2022/02/16 11:06:05;;;;;;;0.70;0.20;;;;;;;9.71;100.00;98561.75;5201852;28;20021;-82
2022/02/16 11:08:36;;;;;;;1.35;0.30;;;;;;;9.79;100.00;98556.88;5185479;28;20033;-81
2022/02/16 11:11:08;;;;;;;1.35;0.30;;;;;;;9.75;100.00;98528.47;5194198;28;20103;-82
2022/02/16 11:13:41;;;;;;;0.20;0.20;;;;;;;9.96;100.00;98521.88;5187771;28;20076;-81
2022/02/16 11:16:11;;;;;;;1.80;0.32;;;;;;;10.15;100.00;98504.09;5185054;28;20029;-80
2022/02/16 11:18:47;;;;;;;2.33;0.38;;;;;;;10.09;100.00;98520.16;5195379;28;20087;-81
2022/02/16 11:21:19;;;;;;;0.30;0.30;;;;;;;10.36;100.00;98510.47;5198842;28;20047;-80
2022/02/16 11:23:52;;;;;;;0.47;0.20;;;;;;;10.37;100.00;98493.88;5204369;28;20102;-82
2022/02/16 11:26:41;;;;;;;0.50;0.32;;;;;;;10.55;100.00;98490.81;5206124;28;20030;-82
2022/02/16 11:29:26;;;;;;;0.15;0.10;;;;;;;10.57;100.00;98480.28;5183882;28;20022;-80
2022/02/16 11:32:02;;;;;;;0.25;0.20;;;;;;;10.57;100.00;98482.91;5188142;28;20040;-80
2022/02/16 11:34:34;;;;;;;0.55;0.20;;;;;;;10.86;100.00;98489.56;5191418;28;20041;-80
2022/02/16 11:37:05;;;;;;;0.85;0.30;;;;;;;10.90;100.00;98498.84;5184927;28;20030;-80
2022/02/16 11:39:45;;;;;;;0.22;0.20;;;;;;;10.90;100.00;98467.50;5189575;28;20037;-81
2022/02/16 11:42:17;;;;;;;0.52;0.20;;;;;;;10.68;100.00;98462.13;5192440;28;20033;-81
2022/02/16 11:44:50;;;;;;;1.10;0.20;;;;;;;10.81;100.00;98465.50;5191429;28;20072;-80
2022/02/16 11:47:36;;;;;;;0.32;0.20;;;;;;;10.70;100.00;98452.38;5191720;28;20081;-81
2022/02/16 11:50:13;;;;;;;0.32;0.15;;;;;;;10.76;100.00;98454.56;5164672;28;20057;-81
2022/02/16 11:52:59;;;;;;;0.32;0.15;;;;;;;10.64;100.00;98460.63;5190279;28;20030;-79